sensor_id;sensor_type;location;lat;lon;timestamp;temperature;humidity
12477;DHT22;6303;51.504;6.300;2022-12-29T00:01:40;21.30;56.20
12477;DHT22;6303;51.504;6.300;2022-12-29T00:04:10;21.30;56.30
12477;DHT22;6303;51.504;6.300;2022-12-29T00:06:38;21.30;56.30
12477;DHT22;6303;51.504;6.300;2022-12-29T00:09:05;21.30;56.30
12477;DHT22;6303;51.504;6.300;2022-12-29T00:11:34;21.30;56.30
12477;DHT22;6303;51.504;6.300;2022-12-29T00:14:01;21.30;56.30
12477;DHT22;6303;51.504;6.300;2022-12-29T00:16:45;21.30;56.40
12477;DHT22;6303;51.504;6.300;2022-12-29T00:19:12;21.30;56.40
12477;DHT22;6303;51.504;6.300;2022-12-29T00:21:53;21.30;56.50
12477;DHT22;6303;51.504;6.300;2022-12-29T00:24:37;21.20;56.40
12477;DHT22;6303;51.504;6.300;2022-12-29T00:27:23;21.20;56.50
12477;DHT22;6303;51.504;6.300;2022-12-29T00:30:09;21.20;56.50
12477;DHT22;6303;51.504;6.300;2022-12-29T00:32:54;21.20;56.50
12477;DHT22;6303;51.504;6.300;2022-12-29T00:35:45;21.20;56.60
12477;DHT22;6303;51.504;6.300;2022-12-29T00:38:14;21.20;56.50
12477;DHT22;6303;51.504;6.300;2022-12-29T00:40:59;21.20;56.60
12477;DHT22;6303;51.504;6.300;2022-12-29T00:43:45;21.20;56.60
12477;DHT22;6303;51.504;6.300;2022-12-29T00:46:30;21.20;56.70
12477;DHT22;6303;51.504;6.300;2022-12-29T00:48:58;21.20;56.70
12477;DHT22;6303;51.504;6.300;2022-12-29T00:51:43;21.20;56.70
12477;DHT22;6303;51.504;6.300;2022-12-29T00:54:10;21.20;56.70
12477;DHT22;6303;51.504;6.300;2022-12-29T00:56:37;21.20;56.70
12477;DHT22;6303;51.504;6.300;2022-12-29T00:59:08;21.20;56.70
12477;DHT22;6303;51.504;6.300;2022-12-29T01:01:36;21.20;56.70
12477;DHT22;6303;51.504;6.300;2022-12-29T01:04:04;21.20;56.70
12477;DHT22;6303;51.504;6.300;2022-12-29T01:06:32;21.20;56.80
12477;DHT22;6303;51.504;6.300;2022-12-29T01:08:59;21.20;56.80
12477;DHT22;6303;51.504;6.300;2022-12-29T01:11:44;21.20;56.80
12477;DHT22;6303;51.504;6.300;2022-12-29T01:14:13;21.20;56.80
12477;DHT22;6303;51.504;6.300;2022-12-29T01:16:40;21.20;56.70
12477;DHT22;6303;51.504;6.300;2022-12-29T01:19:08;21.20;56.60
12477;DHT22;6303;51.504;6.300;2022-12-29T01:21:36;21.30;56.60
12477;DHT22;6303;51.504;6.300;2022-12-29T01:24:03;21.20;56.50
12477;DHT22;6303;51.504;6.300;2022-12-29T01:26:31;21.30;56.60
12477;DHT22;6303;51.504;6.300;2022-12-29T01:28:58;21.20;56.50
12477;DHT22;6303;51.504;6.300;2022-12-29T01:31:27;21.30;56.60
12477;DHT22;6303;51.504;6.300;2022-12-29T01:33:54;21.20;56.50
12477;DHT22;6303;51.504;6.300;2022-12-29T01:36:21;21.30;56.60
12477;DHT22;6303;51.504;6.300;2022-12-29T01:38:48;21.30;56.40
12477;DHT22;6303;51.504;6.300;2022-12-29T01:41:16;21.30;56.30
12477;DHT22;6303;51.504;6.300;2022-12-29T01:43:45;21.30;56.30
12477;DHT22;6303;51.504;6.300;2022-12-29T01:46:22;21.30;56.40
12477;DHT22;6303;51.504;6.300;2022-12-29T01:48:57;21.30;56.50
12477;DHT22;6303;51.504;6.300;2022-12-29T01:51:26;21.30;56.60
12477;DHT22;6303;51.504;6.300;2022-12-29T01:53:57;21.30;56.60
12477;DHT22;6303;51.504;6.300;2022-12-29T01:56:27;21.20;56.60
12477;DHT22;6303;51.504;6.300;2022-12-29T01:58:59;21.20;56.70
12477;DHT22;6303;51.504;6.300;2022-12-29T02:01:28;21.30;56.80
12477;DHT22;6303;51.504;6.300;2022-12-29T02:03:57;21.30;56.70
12477;DHT22;6303;51.504;6.300;2022-12-29T02:06:28;21.20;56.70
12477;DHT22;6303;51.504;6.300;2022-12-29T02:08:56;21.30;57.00
12477;DHT22;6303;51.504;6.300;2022-12-29T02:11:25;21.30;56.90
12477;DHT22;6303;51.504;6.300;2022-12-29T02:13:53;21.30;56.90
12477;DHT22;6303;51.504;6.300;2022-12-29T02:16:31;21.30;56.90
12477;DHT22;6303;51.504;6.300;2022-12-29T02:22:09;21.30;57.00
12477;DHT22;6303;51.504;6.300;2022-12-29T02:24:57;21.30;56.90
12477;DHT22;6303;51.504;6.300;2022-12-29T02:27:51;21.30;56.90
12477;DHT22;6303;51.504;6.300;2022-12-29T02:30:44;21.30;56.90
12477;DHT22;6303;51.504;6.300;2022-12-29T02:33:20;21.30;56.90
12477;DHT22;6303;51.504;6.300;2022-12-29T02:35:54;21.30;56.90
12477;DHT22;6303;51.504;6.300;2022-12-29T02:38:30;21.30;56.40
12477;DHT22;6303;51.504;6.300;2022-12-29T02:41:02;21.30;56.80
12477;DHT22;6303;51.504;6.300;2022-12-29T02:43:37;21.40;56.70
12477;DHT22;6303;51.504;6.300;2022-12-29T02:46:12;21.40;56.40
12477;DHT22;6303;51.504;6.300;2022-12-29T02:48:47;21.40;56.60
12477;DHT22;6303;51.504;6.300;2022-12-29T02:51:20;21.40;56.50
12477;DHT22;6303;51.504;6.300;2022-12-29T02:53:51;21.40;56.40
12477;DHT22;6303;51.504;6.300;2022-12-29T02:56:37;21.40;56.30
12477;DHT22;6303;51.504;6.300;2022-12-29T02:59:04;21.40;56.30
12477;DHT22;6303;51.504;6.300;2022-12-29T03:01:45;21.50;56.30
12477;DHT22;6303;51.504;6.300;2022-12-29T03:04:39;21.50;56.30
12477;DHT22;6303;51.504;6.300;2022-12-29T03:07:13;21.50;56.30
12477;DHT22;6303;51.504;6.300;2022-12-29T03:09:51;21.50;56.40
12477;DHT22;6303;51.504;6.300;2022-12-29T03:12:26;21.50;56.30
12477;DHT22;6303;51.504;6.300;2022-12-29T03:15:21;21.50;56.20
12477;DHT22;6303;51.504;6.300;2022-12-29T03:18:12;21.50;56.10
12477;DHT22;6303;51.504;6.300;2022-12-29T03:20:46;21.50;56.10
12477;DHT22;6303;51.504;6.300;2022-12-29T03:23:14;21.50;56.20
12477;DHT22;6303;51.504;6.300;2022-12-29T03:25:44;21.50;56.20
12477;DHT22;6303;51.504;6.300;2022-12-29T03:28:17;21.50;56.20
12477;DHT22;6303;51.504;6.300;2022-12-29T03:30:46;21.50;56.10
12477;DHT22;6303;51.504;6.300;2022-12-29T03:33:20;21.50;56.10
12477;DHT22;6303;51.504;6.300;2022-12-29T03:35:51;21.50;56.10
12477;DHT22;6303;51.504;6.300;2022-12-29T03:38:23;21.50;56.10
12477;DHT22;6303;51.504;6.300;2022-12-29T03:40:55;21.50;56.10
12477;DHT22;6303;51.504;6.300;2022-12-29T03:43:25;21.50;56.10
12477;DHT22;6303;51.504;6.300;2022-12-29T03:45:54;21.60;55.60
12477;DHT22;6303;51.504;6.300;2022-12-29T03:48:23;21.50;56.00
12477;DHT22;6303;51.504;6.300;2022-12-29T03:50:53;21.60;55.90
12477;DHT22;6303;51.504;6.300;2022-12-29T03:53:20;21.60;55.80
12477;DHT22;6303;51.504;6.300;2022-12-29T03:55:47;21.60;55.80
12477;DHT22;6303;51.504;6.300;2022-12-29T03:58:15;21.60;55.80
12477;DHT22;6303;51.504;6.300;2022-12-29T04:00:57;21.60;55.70
12477;DHT22;6303;51.504;6.300;2022-12-29T04:03:25;21.60;55.70
12477;DHT22;6303;51.504;6.300;2022-12-29T04:05:52;21.60;55.70
12477;DHT22;6303;51.504;6.300;2022-12-29T04:08:19;21.50;55.20
12477;DHT22;6303;51.504;6.300;2022-12-29T04:10:48;21.60;55.70
12477;DHT22;6303;51.504;6.300;2022-12-29T04:13:16;21.50;55.70
12477;DHT22;6303;51.504;6.300;2022-12-29T04:15:44;21.50;55.70
12477;DHT22;6303;51.504;6.300;2022-12-29T04:18:11;21.50;55.70
12477;DHT22;6303;51.504;6.300;2022-12-29T04:20:40;21.50;55.70
12477;DHT22;6303;51.504;6.300;2022-12-29T04:23:21;21.50;55.70
12477;DHT22;6303;51.504;6.300;2022-12-29T04:25:48;21.50;55.70
12477;DHT22;6303;51.504;6.300;2022-12-29T04:28:16;21.50;55.70
12477;DHT22;6303;51.504;6.300;2022-12-29T04:31:06;21.50;55.80
12477;DHT22;6303;51.504;6.300;2022-12-29T04:33:36;21.50;55.80
12477;DHT22;6303;51.504;6.300;2022-12-29T04:36:05;21.60;55.60
12477;DHT22;6303;51.504;6.300;2022-12-29T04:38:33;21.50;55.80
12477;DHT22;6303;51.504;6.300;2022-12-29T04:41:03;21.50;55.80
12477;DHT22;6303;51.504;6.300;2022-12-29T04:43:31;21.50;55.90
12477;DHT22;6303;51.504;6.300;2022-12-29T04:46:16;21.50;55.80
12477;DHT22;6303;51.504;6.300;2022-12-29T04:49:03;21.50;55.80
12477;DHT22;6303;51.504;6.300;2022-12-29T04:51:54;21.50;55.80
12477;DHT22;6303;51.504;6.300;2022-12-29T04:54:21;21.50;55.80
12477;DHT22;6303;51.504;6.300;2022-12-29T04:56:55;21.50;55.80
12477;DHT22;6303;51.504;6.300;2022-12-29T04:59:23;21.50;55.70
12477;DHT22;6303;51.504;6.300;2022-12-29T05:01:54;21.50;55.70
12477;DHT22;6303;51.504;6.300;2022-12-29T05:04:21;21.50;55.70
12477;DHT22;6303;51.504;6.300;2022-12-29T05:06:49;21.50;55.60
12477;DHT22;6303;51.504;6.300;2022-12-29T05:09:18;21.50;55.60
12477;DHT22;6303;51.504;6.300;2022-12-29T05:11:46;21.50;55.60
12477;DHT22;6303;51.504;6.300;2022-12-29T05:14:13;21.50;55.60
12477;DHT22;6303;51.504;6.300;2022-12-29T05:16:41;21.50;55.60
12477;DHT22;6303;51.504;6.300;2022-12-29T05:19:08;21.50;55.70
12477;DHT22;6303;51.504;6.300;2022-12-29T05:21:36;21.50;55.70
12477;DHT22;6303;51.504;6.300;2022-12-29T05:24:03;21.50;55.80
12477;DHT22;6303;51.504;6.300;2022-12-29T05:26:32;21.40;55.70
12477;DHT22;6303;51.504;6.300;2022-12-29T05:29:08;21.40;55.70
12477;DHT22;6303;51.504;6.300;2022-12-29T05:31:35;21.40;55.70
12477;DHT22;6303;51.504;6.300;2022-12-29T05:34:03;21.40;55.70
12477;DHT22;6303;51.504;6.300;2022-12-29T05:36:31;18.40;54.20
12477;DHT22;6303;51.504;6.300;2022-12-29T05:38:59;21.40;56.00
12477;DHT22;6303;51.504;6.300;2022-12-29T05:41:27;21.40;55.80
12477;DHT22;6303;51.504;6.300;2022-12-29T05:44:05;21.40;56.40
12477;DHT22;6303;51.504;6.300;2022-12-29T05:46:48;21.40;55.80
12477;DHT22;6303;51.504;6.300;2022-12-29T05:49:25;21.40;55.90
12477;DHT22;6303;51.504;6.300;2022-12-29T05:51:57;21.40;55.90
12477;DHT22;6303;51.504;6.300;2022-12-29T05:54:24;21.30;55.90
12477;DHT22;6303;51.504;6.300;2022-12-29T05:56:52;21.40;55.90
12477;DHT22;6303;51.504;6.300;2022-12-29T05:59:21;21.40;55.90
12477;DHT22;6303;51.504;6.300;2022-12-29T06:01:52;21.30;55.90
12477;DHT22;6303;51.504;6.300;2022-12-29T06:04:19;21.30;55.90
12477;DHT22;6303;51.504;6.300;2022-12-29T06:06:47;21.40;55.90
12477;DHT22;6303;51.504;6.300;2022-12-29T06:09:37;21.40;55.90
12477;DHT22;6303;51.504;6.300;2022-12-29T06:12:05;21.40;55.90
12477;DHT22;6303;51.504;6.300;2022-12-29T06:14:34;21.30;55.90
12477;DHT22;6303;51.504;6.300;2022-12-29T06:17:03;21.40;55.90
12477;DHT22;6303;51.504;6.300;2022-12-29T06:19:31;21.40;55.90
12477;DHT22;6303;51.504;6.300;2022-12-29T06:21:58;21.40;55.90
12477;DHT22;6303;51.504;6.300;2022-12-29T06:24:27;21.40;55.90
12477;DHT22;6303;51.504;6.300;2022-12-29T06:26:54;21.30;55.90
12477;DHT22;6303;51.504;6.300;2022-12-29T06:29:21;21.30;55.90
12477;DHT22;6303;51.504;6.300;2022-12-29T06:31:50;21.30;55.90
12477;DHT22;6303;51.504;6.300;2022-12-29T06:34:21;21.30;55.90
12477;DHT22;6303;51.504;6.300;2022-12-29T06:36:48;21.40;55.90
12477;DHT22;6303;51.504;6.300;2022-12-29T06:39:15;21.40;55.40
12477;DHT22;6303;51.504;6.300;2022-12-29T06:41:52;21.40;55.90
12477;DHT22;6303;51.504;6.300;2022-12-29T06:44:45;21.40;55.80
12477;DHT22;6303;51.504;6.300;2022-12-29T06:47:14;21.40;55.90
12477;DHT22;6303;51.504;6.300;2022-12-29T06:49:41;21.40;55.90
12477;DHT22;6303;51.504;6.300;2022-12-29T06:52:08;21.40;55.80
12477;DHT22;6303;51.504;6.300;2022-12-29T06:54:35;21.40;55.80
12477;DHT22;6303;51.504;6.300;2022-12-29T06:57:02;21.40;55.80
12477;DHT22;6303;51.504;6.300;2022-12-29T06:59:29;21.40;55.80
12477;DHT22;6303;51.504;6.300;2022-12-29T07:01:56;21.40;55.70
12477;DHT22;6303;51.504;6.300;2022-12-29T07:04:24;21.40;55.70
12477;DHT22;6303;51.504;6.300;2022-12-29T07:06:51;21.40;55.80
12477;DHT22;6303;51.504;6.300;2022-12-29T07:09:19;21.40;55.90
12477;DHT22;6303;51.504;6.300;2022-12-29T07:11:46;21.40;55.90
12477;DHT22;6303;51.504;6.300;2022-12-29T07:14:13;21.40;55.90
12477;DHT22;6303;51.504;6.300;2022-12-29T07:16:40;21.40;55.90
12477;DHT22;6303;51.504;6.300;2022-12-29T07:19:07;21.40;55.90
12477;DHT22;6303;51.504;6.300;2022-12-29T07:21:36;21.40;55.90
12477;DHT22;6303;51.504;6.300;2022-12-29T07:24:03;21.40;55.80
12477;DHT22;6303;51.504;6.300;2022-12-29T07:26:31;21.40;55.80
12477;DHT22;6303;51.504;6.300;2022-12-29T07:29:00;21.40;55.70
12477;DHT22;6303;51.504;6.300;2022-12-29T07:31:27;21.40;55.70
12477;DHT22;6303;51.504;6.300;2022-12-29T07:33:54;21.40;55.70
12477;DHT22;6303;51.504;6.300;2022-12-29T07:36:21;21.40;55.70
12477;DHT22;6303;51.504;6.300;2022-12-29T07:38:50;21.40;55.70
12477;DHT22;6303;51.504;6.300;2022-12-29T07:41:17;21.40;55.70
12477;DHT22;6303;51.504;6.300;2022-12-29T07:43:46;21.40;55.60
12477;DHT22;6303;51.504;6.300;2022-12-29T07:46:33;21.40;55.60
12477;DHT22;6303;51.504;6.300;2022-12-29T07:49:00;21.40;55.50
12477;DHT22;6303;51.504;6.300;2022-12-29T07:51:27;21.50;55.50
12477;DHT22;6303;51.504;6.300;2022-12-29T07:53:55;21.50;55.40
12477;DHT22;6303;51.504;6.300;2022-12-29T07:56:22;21.50;55.40
12477;DHT22;6303;51.504;6.300;2022-12-29T07:58:49;21.50;55.30
12477;DHT22;6303;51.504;6.300;2022-12-29T08:01:16;21.50;55.30
12477;DHT22;6303;51.504;6.300;2022-12-29T08:03:43;21.50;55.20
12477;DHT22;6303;51.504;6.300;2022-12-29T08:06:10;21.50;55.20
12477;DHT22;6303;51.504;6.300;2022-12-29T08:08:38;21.50;54.70
12477;DHT22;6303;51.504;6.300;2022-12-29T08:11:06;21.50;55.00
12477;DHT22;6303;51.504;6.300;2022-12-29T08:13:34;21.50;55.00
12477;DHT22;6303;51.504;6.300;2022-12-29T08:16:01;21.50;55.00
12477;DHT22;6303;51.504;6.300;2022-12-29T08:18:28;21.30;54.60
12477;DHT22;6303;51.504;6.300;2022-12-29T08:20:55;21.50;55.60
12477;DHT22;6303;51.504;6.300;2022-12-29T08:23:22;21.50;55.00
12477;DHT22;6303;51.504;6.300;2022-12-29T08:25:57;21.50;54.90
12477;DHT22;6303;51.504;6.300;2022-12-29T08:28:26;21.60;54.50
12477;DHT22;6303;51.504;6.300;2022-12-29T08:30:53;21.50;54.80
12477;DHT22;6303;51.504;6.300;2022-12-29T08:33:21;21.60;54.80
12477;DHT22;6303;51.504;6.300;2022-12-29T08:35:48;21.60;54.70
12477;DHT22;6303;51.504;6.300;2022-12-29T08:38:15;21.60;55.30
12477;DHT22;6303;51.504;6.300;2022-12-29T08:40:43;21.60;54.60
12477;DHT22;6303;51.504;6.300;2022-12-29T08:43:10;21.70;54.30
12477;DHT22;6303;51.504;6.300;2022-12-29T08:45:39;21.90;54.20
12477;DHT22;6303;51.504;6.300;2022-12-29T08:48:06;21.90;54.00
12477;DHT22;6303;51.504;6.300;2022-12-29T08:50:33;22.00;53.90
12477;DHT22;6303;51.504;6.300;2022-12-29T08:53:00;22.00;53.70
12477;DHT22;6303;51.504;6.300;2022-12-29T08:55:27;22.10;53.70
12477;DHT22;6303;51.504;6.300;2022-12-29T08:57:54;22.10;53.50
12477;DHT22;6303;51.504;6.300;2022-12-29T09:00:22;22.20;53.40
12477;DHT22;6303;51.504;6.300;2022-12-29T09:02:52;22.20;53.30
12477;DHT22;6303;51.504;6.300;2022-12-29T09:05:20;22.20;53.30
12477;DHT22;6303;51.504;6.300;2022-12-29T09:07:47;22.20;53.20
12477;DHT22;6303;51.504;6.300;2022-12-29T09:10:14;22.20;53.20
12477;DHT22;6303;51.504;6.300;2022-12-29T09:12:41;22.20;53.20
12477;DHT22;6303;51.504;6.300;2022-12-29T09:15:08;22.20;53.20
12477;DHT22;6303;51.504;6.300;2022-12-29T09:17:35;22.20;53.20
12477;DHT22;6303;51.504;6.300;2022-12-29T09:20:15;22.10;53.20
12477;DHT22;6303;51.504;6.300;2022-12-29T09:22:43;22.20;53.10
12477;DHT22;6303;51.504;6.300;2022-12-29T09:25:10;22.20;53.00
12477;DHT22;6303;51.504;6.300;2022-12-29T09:27:38;22.30;52.90
12477;DHT22;6303;51.504;6.300;2022-12-29T09:30:07;22.40;52.70
12477;DHT22;6303;51.504;6.300;2022-12-29T09:32:35;24.40;53.60
12477;DHT22;6303;51.504;6.300;2022-12-29T09:35:02;22.50;52.50
12477;DHT22;6303;51.504;6.300;2022-12-29T09:37:31;22.50;52.40
12477;DHT22;6303;51.504;6.300;2022-12-29T09:39:58;22.60;52.30
12477;DHT22;6303;51.504;6.300;2022-12-29T09:42:27;22.60;52.10
12477;DHT22;6303;51.504;6.300;2022-12-29T09:45:05;22.70;52.00
12477;DHT22;6303;51.504;6.300;2022-12-29T09:47:36;22.70;51.90
12477;DHT22;6303;51.504;6.300;2022-12-29T09:50:08;22.70;51.80
12477;DHT22;6303;51.504;6.300;2022-12-29T09:52:42;22.70;51.90
12477;DHT22;6303;51.504;6.300;2022-12-29T09:55:13;22.70;51.80
12477;DHT22;6303;51.504;6.300;2022-12-29T09:57:45;22.80;51.90
12477;DHT22;6303;51.504;6.300;2022-12-29T10:00:15;22.80;51.70
12477;DHT22;6303;51.504;6.300;2022-12-29T10:02:45;22.80;51.70
12477;DHT22;6303;51.504;6.300;2022-12-29T10:05:24;22.70;51.80
12477;DHT22;6303;51.504;6.300;2022-12-29T10:08:04;22.60;51.80
12477;DHT22;6303;51.504;6.300;2022-12-29T10:10:38;22.60;51.90
12477;DHT22;6303;51.504;6.300;2022-12-29T10:13:25;22.60;51.80
12477;DHT22;6303;51.504;6.300;2022-12-29T10:15:59;22.60;51.90
12477;DHT22;6303;51.504;6.300;2022-12-29T10:21:28;22.50;52.30
12477;DHT22;6303;51.504;6.300;2022-12-29T10:24:02;22.50;52.40
12477;DHT22;6303;51.504;6.300;2022-12-29T10:26:36;22.60;52.40
12477;DHT22;6303;51.504;6.300;2022-12-29T10:29:06;22.60;52.40
12477;DHT22;6303;51.504;6.300;2022-12-29T10:31:37;22.50;52.30
12477;DHT22;6303;51.504;6.300;2022-12-29T10:34:14;22.50;52.30
12477;DHT22;6303;51.504;6.300;2022-12-29T10:36:44;22.50;52.30
12477;DHT22;6303;51.504;6.300;2022-12-29T10:39:21;22.50;52.30
12477;DHT22;6303;51.504;6.300;2022-12-29T10:41:53;22.50;52.30
12477;DHT22;6303;51.504;6.300;2022-12-29T10:44:25;22.50;52.30
12477;DHT22;6303;51.504;6.300;2022-12-29T10:46:59;22.50;52.40
12477;DHT22;6303;51.504;6.300;2022-12-29T10:49:28;22.50;52.50
12477;DHT22;6303;51.504;6.300;2022-12-29T10:51:58;22.50;52.50
12477;DHT22;6303;51.504;6.300;2022-12-29T10:54:33;22.50;52.50
12477;DHT22;6303;51.504;6.300;2022-12-29T10:57:06;22.50;52.50
12477;DHT22;6303;51.504;6.300;2022-12-29T10:59:36;22.50;52.60
12477;DHT22;6303;51.504;6.300;2022-12-29T11:02:21;22.50;52.50
12477;DHT22;6303;51.504;6.300;2022-12-29T11:04:54;22.50;52.60
12477;DHT22;6303;51.504;6.300;2022-12-29T11:07:24;22.40;52.50
12477;DHT22;6303;51.504;6.300;2022-12-29T11:09:53;22.40;52.50
12477;DHT22;6303;51.504;6.300;2022-12-29T11:12:22;22.40;52.60
12477;DHT22;6303;51.504;6.300;2022-12-29T11:15:12;22.40;52.50
12477;DHT22;6303;51.504;6.300;2022-12-29T11:17:47;23.00;52.80
12477;DHT22;6303;51.504;6.300;2022-12-29T11:20:33;22.40;52.50
12477;DHT22;6303;51.504;6.300;2022-12-29T11:23:00;22.40;52.50
12477;DHT22;6303;51.504;6.300;2022-12-29T11:25:30;22.40;52.50
12477;DHT22;6303;51.504;6.300;2022-12-29T11:28:00;22.40;52.50
12477;DHT22;6303;51.504;6.300;2022-12-29T11:30:29;22.40;52.50
12477;DHT22;6303;51.504;6.300;2022-12-29T11:32:58;22.40;52.50
12477;DHT22;6303;51.504;6.300;2022-12-29T11:35:33;22.30;52.50
12477;DHT22;6303;51.504;6.300;2022-12-29T11:38:02;22.30;52.50
12477;DHT22;6303;51.504;6.300;2022-12-29T11:40:31;22.40;52.40
12477;DHT22;6303;51.504;6.300;2022-12-29T11:43:04;22.40;52.40
12477;DHT22;6303;51.504;6.300;2022-12-29T11:45:34;22.40;52.30
12477;DHT22;6303;51.504;6.300;2022-12-29T11:48:08;22.40;52.20
12477;DHT22;6303;51.504;6.300;2022-12-29T11:50:39;22.40;52.20
12477;DHT22;6303;51.504;6.300;2022-12-29T11:53:15;22.40;52.20
12477;DHT22;6303;51.504;6.300;2022-12-29T11:55:53;22.40;52.20
12477;DHT22;6303;51.504;6.300;2022-12-29T11:58:28;22.20;51.90
12477;DHT22;6303;51.504;6.300;2022-12-29T12:01:01;22.30;52.40
12477;DHT22;6303;51.504;6.300;2022-12-29T12:03:30;22.20;52.40
12477;DHT22;6303;51.504;6.300;2022-12-29T12:06:01;22.20;52.50
12477;DHT22;6303;51.504;6.300;2022-12-29T12:08:34;22.10;52.20
12477;DHT22;6303;51.504;6.300;2022-12-29T12:11:10;22.20;52.60
12477;DHT22;6303;51.504;6.300;2022-12-29T12:13:43;22.20;52.60
12477;DHT22;6303;51.504;6.300;2022-12-29T12:16:19;22.20;52.60
12477;DHT22;6303;51.504;6.300;2022-12-29T12:18:53;22.20;52.60
12477;DHT22;6303;51.504;6.300;2022-12-29T12:21:25;22.10;52.60
12477;DHT22;6303;51.504;6.300;2022-12-29T12:24:15;22.10;52.70
12477;DHT22;6303;51.504;6.300;2022-12-29T12:26:56;22.10;52.70
12477;DHT22;6303;51.504;6.300;2022-12-29T12:29:28;22.10;52.80
12477;DHT22;6303;51.504;6.300;2022-12-29T12:32:03;22.10;52.80
12477;DHT22;6303;51.504;6.300;2022-12-29T12:34:35;22.10;52.80
12477;DHT22;6303;51.504;6.300;2022-12-29T12:37:23;22.10;52.90
12477;DHT22;6303;51.504;6.300;2022-12-29T12:40:11;22.10;52.90
12477;DHT22;6303;51.504;6.300;2022-12-29T12:42:52;22.10;52.90
12477;DHT22;6303;51.504;6.300;2022-12-29T12:45:38;22.10;52.90
12477;DHT22;6303;51.504;6.300;2022-12-29T12:48:22;22.10;52.90
12477;DHT22;6303;51.504;6.300;2022-12-29T12:50:59;22.10;52.80
12477;DHT22;6303;51.504;6.300;2022-12-29T12:53:52;22.10;52.90
12477;DHT22;6303;51.504;6.300;2022-12-29T12:56:44;22.00;52.80
12477;DHT22;6303;51.504;6.300;2022-12-29T12:59:29;22.10;52.90
12477;DHT22;6303;51.504;6.300;2022-12-29T13:02:02;22.20;52.70
12477;DHT22;6303;51.504;6.300;2022-12-29T13:04:52;22.20;52.60
12477;DHT22;6303;51.504;6.300;2022-12-29T13:07:30;22.30;52.50
12477;DHT22;6303;51.504;6.300;2022-12-29T13:10:12;22.30;52.20
12477;DHT22;6303;51.504;6.300;2022-12-29T13:12:50;22.40;52.20
12477;DHT22;6303;51.504;6.300;2022-12-29T13:15:30;22.30;52.30
12477;DHT22;6303;51.504;6.300;2022-12-29T13:18:13;22.30;52.40
12477;DHT22;6303;51.504;6.300;2022-12-29T13:20:49;22.30;52.50
12477;DHT22;6303;51.504;6.300;2022-12-29T13:23:23;22.30;52.50
12477;DHT22;6303;51.504;6.300;2022-12-29T13:26:01;22.30;52.50
12477;DHT22;6303;51.504;6.300;2022-12-29T13:28:37;22.50;52.20
12477;DHT22;6303;51.504;6.300;2022-12-29T13:31:15;22.30;52.50
12477;DHT22;6303;51.504;6.300;2022-12-29T13:33:50;22.30;52.50
12477;DHT22;6303;51.504;6.300;2022-12-29T13:36:26;22.30;52.40
12477;DHT22;6303;51.504;6.300;2022-12-29T13:39:01;22.30;52.40
12477;DHT22;6303;51.504;6.300;2022-12-29T13:41:32;22.30;52.40
12477;DHT22;6303;51.504;6.300;2022-12-29T13:44:02;22.30;52.50
12477;DHT22;6303;51.504;6.300;2022-12-29T13:46:34;22.30;52.50
12477;DHT22;6303;51.504;6.300;2022-12-29T13:49:06;22.30;52.50
12477;DHT22;6303;51.504;6.300;2022-12-29T13:51:41;21.40;52.10
12477;DHT22;6303;51.504;6.300;2022-12-29T13:54:18;22.30;52.40
12477;DHT22;6303;51.504;6.300;2022-12-29T13:56:52;22.30;52.50
12477;DHT22;6303;51.504;6.300;2022-12-29T13:59:31;22.30;52.40
12477;DHT22;6303;51.504;6.300;2022-12-29T14:02:17;22.40;52.20
12477;DHT22;6303;51.504;6.300;2022-12-29T14:04:57;22.40;52.20
12477;DHT22;6303;51.504;6.300;2022-12-29T14:07:25;22.40;52.20
12477;DHT22;6303;51.504;6.300;2022-12-29T14:09:54;22.40;52.10
12477;DHT22;6303;51.504;6.300;2022-12-29T14:12:37;22.40;52.20
12477;DHT22;6303;51.504;6.300;2022-12-29T14:15:21;22.30;52.30
12477;DHT22;6303;51.504;6.300;2022-12-29T14:18:15;22.30;52.40
12477;DHT22;6303;51.504;6.300;2022-12-29T14:20:53;22.30;52.40
12477;DHT22;6303;51.504;6.300;2022-12-29T14:23:35;22.30;52.40
12477;DHT22;6303;51.504;6.300;2022-12-29T14:26:17;22.30;52.40
12477;DHT22;6303;51.504;6.300;2022-12-29T14:28:45;22.30;52.50
12477;DHT22;6303;51.504;6.300;2022-12-29T14:31:40;22.30;52.50
12477;DHT22;6303;51.504;6.300;2022-12-29T14:34:29;22.20;52.60
12477;DHT22;6303;51.504;6.300;2022-12-29T14:36:58;22.20;52.60
12477;DHT22;6303;51.504;6.300;2022-12-29T14:39:36;22.20;52.50
12477;DHT22;6303;51.504;6.300;2022-12-29T14:42:05;22.20;52.60
12477;DHT22;6303;51.504;6.300;2022-12-29T14:44:33;22.20;52.90
12477;DHT22;6303;51.504;6.300;2022-12-29T14:47:05;22.20;52.90
12477;DHT22;6303;51.504;6.300;2022-12-29T14:49:41;22.20;52.90
12477;DHT22;6303;51.504;6.300;2022-12-29T14:52:17;22.20;52.70
12477;DHT22;6303;51.504;6.300;2022-12-29T14:54:47;22.30;52.60
12477;DHT22;6303;51.504;6.300;2022-12-29T14:57:30;22.10;52.30
12477;DHT22;6303;51.504;6.300;2022-12-29T15:00:04;22.10;53.30
12477;DHT22;6303;51.504;6.300;2022-12-29T15:02:36;22.10;52.90
12477;DHT22;6303;51.504;6.300;2022-12-29T15:05:25;22.10;52.90
12477;DHT22;6303;51.504;6.300;2022-12-29T15:07:55;22.00;52.80
12477;DHT22;6303;51.504;6.300;2022-12-29T15:10:23;22.00;53.00
12477;DHT22;6303;51.504;6.300;2022-12-29T15:12:52;22.00;53.00
12477;DHT22;6303;51.504;6.300;2022-12-29T15:15:23;22.00;53.70
12477;DHT22;6303;51.504;6.300;2022-12-29T15:17:50;21.90;53.20
12477;DHT22;6303;51.504;6.300;2022-12-29T15:20:24;21.90;53.30
12477;DHT22;6303;51.504;6.300;2022-12-29T15:22:55;21.90;53.20
12477;DHT22;6303;51.504;6.300;2022-12-29T15:25:23;22.00;53.30
12477;DHT22;6303;51.504;6.300;2022-12-29T15:27:52;22.00;53.20
12477;DHT22;6303;51.504;6.300;2022-12-29T15:30:20;21.90;53.20
12477;DHT22;6303;51.504;6.300;2022-12-29T15:32:49;22.00;53.30
12477;DHT22;6303;51.504;6.300;2022-12-29T15:35:29;21.90;53.20
12477;DHT22;6303;51.504;6.300;2022-12-29T15:37:58;21.90;53.40
12477;DHT22;6303;51.504;6.300;2022-12-29T15:40:28;21.90;53.40
12477;DHT22;6303;51.504;6.300;2022-12-29T15:43:12;21.90;53.30
12477;DHT22;6303;51.504;6.300;2022-12-29T15:45:41;21.90;53.30
12477;DHT22;6303;51.504;6.300;2022-12-29T15:48:15;21.90;53.40
12477;DHT22;6303;51.504;6.300;2022-12-29T15:50:45;21.90;53.50
12477;DHT22;6303;51.504;6.300;2022-12-29T15:53:19;21.90;53.40
12477;DHT22;6303;51.504;6.300;2022-12-29T15:55:50;21.90;53.50
12477;DHT22;6303;51.504;6.300;2022-12-29T15:58:22;21.90;53.20
12477;DHT22;6303;51.504;6.300;2022-12-29T16:00:51;21.80;53.30
12477;DHT22;6303;51.504;6.300;2022-12-29T16:03:20;21.70;53.60
12477;DHT22;6303;51.504;6.300;2022-12-29T16:05:55;21.80;53.70
12477;DHT22;6303;51.504;6.300;2022-12-29T16:08:29;21.80;53.50
12477;DHT22;6303;51.504;6.300;2022-12-29T16:10:59;21.80;53.40
12477;DHT22;6303;51.504;6.300;2022-12-29T16:13:29;21.80;53.50
12477;DHT22;6303;51.504;6.300;2022-12-29T16:16:01;21.90;53.40
12477;DHT22;6303;51.504;6.300;2022-12-29T16:18:32;21.90;53.40
12477;DHT22;6303;51.504;6.300;2022-12-29T16:21:05;21.90;53.40
12477;DHT22;6303;51.504;6.300;2022-12-29T16:23:36;21.90;53.60
12477;DHT22;6303;51.504;6.300;2022-12-29T16:26:04;21.90;53.30